Time;durP1;ratioP1;P1;durP2;ratioP2;P2;SDS_P1;SDS_P2;PMS_P1;PMS_P2;Temp;Humidity;BMP_temperature;BMP_pressure;BME280_temperature;BME280_humidity;BME280_pressure;Samples;Min_cycle;Max_cycle;Signal;HPM_P1;HPM_P2
2023/07/15 00:01:29;;;;;;;5.43;2.92;;;29.10;77.80;;;;;;10045979;28;20034;-71
2023/07/15 00:06:21;;;;;;;3.28;2.50;;;29.00;78.10;;;;;;10045199;28;20030;-71
2023/07/15 00:11:18;;;;;;;3.22;2.55;;;28.80;78.60;;;;;;10047411;28;20156;-72
2023/07/15 00:16:14;;;;;;;5.15;2.45;;;28.90;78.50;;;;;;10056496;28;20033;-71
2023/07/15 00:21:16;;;;;;;3.50;2.50;;;28.90;78.40;;;;;;10056065;28;20037;-71
2023/07/15 00:26:07;;;;;;;5.68;2.60;;;28.80;78.50;;;;;;10051897;28;20064;-71
2023/07/15 00:30:58;;;;;;;2.67;2.22;;;28.60;78.90;;;;;;10058449;28;20041;-71
2023/07/15 00:35:49;;;;;;;6.03;3.20;;;28.60;79.00;;;;;;10062426;28;20029;-71
2023/07/15 00:40:46;;;;;;;4.65;2.28;;;28.80;78.90;;;;;;10061430;28;20102;-72
2023/07/15 00:45:37;;;;;;;3.35;2.47;;;28.80;78.70;;;;;;10065230;28;20021;-72
2023/07/15 00:50:27;;;;;;;4.22;2.10;;;28.70;78.80;;;;;;10058490;28;20033;-72
2023/07/15 00:55:18;;;;;;;5.35;2.47;;;28.60;79.00;;;;;;10048888;28;20064;-71
2023/07/15 01:00:10;;;;;;;5.10;3.42;;;28.60;78.70;;;;;;10050516;28;20030;-71
2023/07/15 01:05:01;;;;;;;4.00;2.40;;;28.50;78.60;;;;;;10038125;28;20121;-70
2023/07/15 01:09:52;;;;;;;5.03;2.95;;;28.50;78.90;;;;;;10054628;28;20108;-70
2023/07/15 01:14:44;;;;;;;11.98;2.92;;;28.50;78.90;;;;;;10058431;28;20064;-70
2023/07/15 01:19:34;;;;;;;4.53;2.63;;;28.50;79.10;;;;;;10050699;28;20414;-71
2023/07/15 01:24:26;;;;;;;5.72;2.47;;;28.50;79.10;;;;;;10045056;28;20041;-70
2023/07/15 01:29:17;;;;;;;3.90;2.38;;;28.30;79.50;;;;;;10036576;28;20056;-70
2023/07/15 01:34:08;;;;;;;4.97;2.63;;;28.40;79.50;;;;;;10042542;28;20103;-71
2023/07/15 01:38:58;;;;;;;3.25;2.55;;;28.30;79.70;;;;;;10055538;28;20021;-70
2023/07/15 01:43:49;;;;;;;4.20;2.70;;;28.20;80.10;;;;;;10057407;28;20029;-71
2023/07/15 01:48:39;;;;;;;5.18;2.60;;;28.20;80.50;;;;;;10058068;28;20017;-70
2023/07/15 01:53:30;;;;;;;3.35;2.55;;;28.20;80.60;;;;;;10050145;28;20033;-70
2023/07/15 01:58:21;;;;;;;3.80;2.65;;;28.00;81.20;;;;;;10047280;28;20026;-70
2023/07/15 02:03:11;;;;;;;4.70;2.60;;;28.00;81.30;;;;;;10030679;28;20026;-71
2023/07/15 02:08:02;;;;;;;7.10;3.25;;;28.00;81.50;;;;;;10038641;28;20514;-71
2023/07/15 02:12:53;;;;;;;4.35;2.33;;;27.90;81.80;;;;;;10053258;28;20050;-70
2023/07/15 02:17:45;;;;;;;3.95;2.45;;;27.80;82.50;;;;;;10044698;28;20037;-70
2023/07/15 02:22:36;;;;;;;3.40;2.63;;;27.70;82.70;;;;;;10043387;28;20141;-71
2023/07/15 02:27:29;;;;;;;4.05;2.45;;;27.60;83.10;;;;;;10046080;28;20583;-71
2023/07/15 02:32:39;;;;;;;5.80;3.13;;;27.50;83.70;;;;;;10048332;28;20037;-70
2023/07/15 02:37:29;;;;;;;3.53;2.35;;;27.60;84.00;;;;;;10037125;28;20116;-70
2023/07/15 02:42:20;;;;;;;3.83;2.85;;;27.40;84.30;;;;;;10050886;28;20112;-70
2023/07/15 02:47:10;;;;;;;4.18;2.55;;;27.30;84.80;;;;;;10064172;28;20052;-71
2023/07/15 02:52:02;;;;;;;4.47;2.58;;;27.30;85.00;;;;;;10055702;28;20041;-72
2023/07/15 02:56:55;;;;;;;3.38;2.38;;;27.40;85.40;;;;;;10048331;28;20056;-71
2023/07/15 03:01:46;;;;;;;5.07;3.08;;;27.30;85.40;;;;;;10047519;28;20022;-70
2023/07/15 03:06:37;;;;;;;5.15;2.88;;;27.20;85.80;;;;;;10053765;28;20037;-71
2023/07/15 03:11:28;;;;;;;4.47;3.38;;;27.20;86.00;;;;;;10054629;28;20372;-71
2023/07/15 03:16:22;;;;;;;5.55;2.83;;;27.10;86.40;;;;;;10058365;28;20499;-70
2023/07/15 03:21:12;;;;;;;4.72;2.60;;;27.10;86.30;;;;;;10055778;28;20639;-70
2023/07/15 03:26:03;;;;;;;3.50;2.65;;;27.00;86.30;;;;;;10057640;28;20272;-70
2023/07/15 03:30:53;;;;;;;5.35;2.70;;;27.00;86.40;;;;;;10053463;28;20033;-71
2023/07/15 03:35:45;;;;;;;3.65;2.60;;;26.90;86.70;;;;;;10055928;28;20041;-70
2023/07/15 03:40:35;;;;;;;4.18;2.88;;;26.80;86.80;;;;;;10047927;28;20041;-70
2023/07/15 03:45:26;;;;;;;6.10;3.28;;;26.80;87.10;;;;;;10054651;28;20021;-70
2023/07/15 03:50:16;;;;;;;5.38;3.00;;;26.80;86.90;;;;;;10043708;28;20503;-70
2023/07/15 03:55:07;;;;;;;3.47;2.67;;;26.90;86.70;;;;;;10038945;28;20063;-70
2023/07/15 03:59:58;;;;;;;4.00;2.33;;;26.80;86.90;;;;;;10031979;28;20029;-70
2023/07/15 04:04:49;;;;;;;3.33;2.53;;;26.60;87.30;;;;;;10049224;28;20038;-70
2023/07/15 04:09:40;;;;;;;3.20;2.58;;;26.60;87.70;;;;;;10041292;28;20025;-70
2023/07/15 04:14:31;;;;;;;5.20;2.50;;;26.60;87.60;;;;;;10038900;28;20077;-70
2023/07/15 04:19:21;;;;;;;3.35;2.30;;;26.70;87.30;;;;;;10027628;28;20048;-70
2023/07/15 04:24:12;;;;;;;3.85;2.95;;;26.60;87.50;;;;;;10033751;28;20112;-70
2023/07/15 04:29:03;;;;;;;4.57;2.15;;;26.60;87.60;;;;;;10039380;28;20049;-69
2023/07/15 04:33:54;;;;;;;3.47;2.78;;;26.70;87.60;;;;;;10056565;28;20108;-70
2023/07/15 04:38:44;;;;;;;3.40;2.40;;;26.70;87.60;;;;;;10076383;28;20053;-70
2023/07/15 04:43:35;;;;;;;3.83;2.80;;;26.60;87.70;;;;;;10047449;28;20041;-71
2023/07/15 04:48:26;;;;;;;4.85;2.50;;;26.70;87.90;;;;;;10039147;28;20097;-70
2023/07/15 04:53:17;;;;;;;3.58;2.60;;;26.60;88.10;;;;;;10034492;28;20041;-69
2023/07/15 04:58:07;;;;;;;3.60;2.25;;;26.70;88.10;;;;;;10033335;28;20088;-70
2023/07/15 05:02:58;;;;;;;2.75;2.33;;;26.70;88.40;;;;;;10040304;28;20533;-70
2023/07/15 05:07:50;;;;;;;4.80;2.58;;;26.80;88.30;;;;;;10047445;28;20030;-69
2023/07/15 05:12:40;;;;;;;4.60;2.15;;;26.80;88.10;;;;;;10047671;28;20057;-70
2023/07/15 05:17:31;;;;;;;4.60;2.78;;;26.80;88.10;;;;;;10045900;28;20431;-70
2023/07/15 05:22:22;;;;;;;5.78;2.10;;;26.90;87.70;;;;;;10060114;28;20064;-69
2023/07/15 05:27:14;;;;;;;3.05;2.25;;;26.90;87.50;;;;;;10058901;28;20028;-71
2023/07/15 05:32:05;;;;;;;4.35;2.25;;;26.90;87.70;;;;;;10058810;28;20037;-69
2023/07/15 05:36:55;;;;;;;2.67;2.30;;;27.00;87.60;;;;;;10059666;28;20021;-70
2023/07/15 05:41:46;;;;;;;3.42;2.22;;;27.00;87.80;;;;;;10051238;28;20439;-69
2023/07/15 05:46:37;;;;;;;2.40;1.67;;;27.00;87.70;;;;;;10058667;28;20120;-70
2023/07/15 05:51:28;;;;;;;2.38;1.90;;;27.00;88.20;;;;;;10049010;28;20084;-70
2023/07/15 05:56:19;;;;;;;3.42;2.28;;;27.00;87.30;;;;;;10038232;28;20444;-70
2023/07/15 06:01:09;;;;;;;3.20;2.75;;;26.90;87.90;;;;;;10037100;28;20099;-70
2023/07/15 06:06:01;;;;;;;3.53;2.20;;;26.90;87.70;;;;;;10056492;28;20029;-70
2023/07/15 06:10:52;;;;;;;4.32;1.90;;;27.00;87.60;;;;;;10047993;28;20459;-70
2023/07/15 06:15:47;;;;;;;2.95;2.42;;;27.10;87.80;;;;;;10038644;28;20041;-70
2023/07/15 06:20:40;;;;;;;4.35;2.28;;;27.10;88.20;;;;;;10033669;28;20207;-70
2023/07/15 06:25:31;;;;;;;2.65;2.20;;;27.20;87.60;;;;;;10047583;28;20372;-71
2023/07/15 06:30:22;;;;;;;4.25;2.20;;;27.20;87.80;;;;;;10052438;28;20037;-71
2023/07/15 06:35:13;;;;;;;2.75;2.08;;;27.20;87.70;;;;;;10056530;28;20037;-70
2023/07/15 06:40:04;;;;;;;2.90;1.88;;;27.20;87.70;;;;;;10049217;28;20021;-70
2023/07/15 06:44:55;;;;;;;3.60;1.92;;;27.30;87.60;;;;;;10057865;28;20025;-71
2023/07/15 06:49:45;;;;;;;2.88;2.35;;;27.20;87.60;;;;;;10050605;28;20036;-70
2023/07/15 06:54:36;;;;;;;4.55;2.30;;;27.20;87.80;;;;;;10047607;28;20143;-71
2023/07/15 06:59:26;;;;;;;3.10;2.30;;;27.30;87.70;;;;;;10033885;28;20872;-70
2023/07/15 07:04:17;;;;;;;3.42;2.30;;;27.40;87.70;;;;;;10053071;28;20037;-70
2023/07/15 07:09:07;;;;;;;2.42;1.98;;;27.30;87.80;;;;;;10047551;28;20034;-71
2023/07/15 07:13:58;;;;;;;3.40;2.00;;;27.40;88.00;;;;;;10035146;28;20296;-70
2023/07/15 07:18:49;;;;;;;4.10;2.38;;;27.50;88.00;;;;;;10033425;28;20021;-70
2023/07/15 07:23:39;;;;;;;3.78;2.58;;;27.50;88.00;;;;;;10027403;28;20540;-70
2023/07/15 07:28:42;;;;;;;2.65;2.03;;;27.60;88.10;;;;;;10039739;28;20049;-70
2023/07/15 07:33:32;;;;;;;3.22;2.22;;;27.70;88.30;;;;;;10056841;28;20495;-70
2023/07/15 07:38:23;;;;;;;3.95;2.25;;;27.70;88.10;;;;;;10049426;28;20102;-70
2023/07/15 07:43:13;;;;;;;5.72;2.50;;;27.70;87.90;;;;;;10055468;28;20414;-70
2023/07/15 07:48:04;;;;;;;3.17;2.03;;;27.70;87.60;;;;;;10044607;28;20125;-70
2023/07/15 07:52:55;;;;;;;4.47;2.13;;;27.80;87.40;;;;;;10049087;28;20046;-71
2023/07/15 07:57:45;;;;;;;3.67;2.03;;;27.80;87.30;;;;;;10035931;28;20030;-70
2023/07/15 08:02:36;;;;;;;3.28;1.83;;;27.90;87.10;;;;;;10032194;28;20452;-70
2023/07/15 08:07:27;;;;;;;3.15;2.25;;;28.00;86.90;;;;;;10054136;28;20030;-70
2023/07/15 08:12:17;;;;;;;3.55;2.10;;;28.20;86.70;;;;;;10041282;28;20058;-70
2023/07/15 08:17:08;;;;;;;5.47;2.40;;;28.30;86.50;;;;;;10054117;28;20040;-70
2023/07/15 08:21:59;;;;;;;2.58;1.75;;;28.40;86.40;;;;;;10056448;28;20049;-70
2023/07/15 08:26:49;;;;;;;4.13;2.30;;;28.40;86.30;;;;;;10056705;28;20034;-70
2023/07/15 08:31:40;;;;;;;3.83;1.85;;;28.30;86.10;;;;;;10052605;28;20180;-70
2023/07/15 08:36:30;;;;;;;5.43;1.90;;;28.30;86.20;;;;;;10050766;28;20101;-70
2023/07/15 08:41:24;;;;;;;4.28;1.63;;;28.20;86.10;;;;;;10041286;28;20113;-70
2023/07/15 08:46:27;;;;;;;2.77;1.57;;;28.20;86.00;;;;;;10048748;28;20099;-70
2023/07/15 08:51:21;;;;;;;3.05;2.20;;;28.20;85.80;;;;;;10033108;28;20168;-70
2023/07/15 08:56:13;;;;;;;3.42;2.13;;;28.10;85.70;;;;;;10052603;28;20520;-70
2023/07/15 09:01:04;;;;;;;4.93;2.10;;;28.20;85.60;;;;;;10037336;28;20033;-70
2023/07/15 09:05:54;;;;;;;4.05;2.45;;;28.30;85.40;;;;;;10056661;28;20025;-70
2023/07/15 09:10:52;;;;;;;3.40;2.17;;;28.20;86.00;;;;;;10053929;28;20037;-70
2023/07/15 09:15:43;;;;;;;4.05;2.45;;;28.10;86.50;;;;;;10046035;28;20526;-71
2023/07/15 09:20:33;;;;;;;3.33;2.17;;;28.10;86.50;;;;;;10056087;28;20026;-70
2023/07/15 09:25:25;;;;;;;3.53;2.25;;;28.30;86.20;;;;;;10039301;28;20468;-70
2023/07/15 09:30:16;;;;;;;5.05;2.25;;;28.40;85.90;;;;;;10053234;28;20033;-70
2023/07/15 09:35:07;;;;;;;3.42;2.22;;;28.50;85.40;;;;;;10088345;28;20821;-70
2023/07/15 09:40:05;;;;;;;3.55;1.83;;;28.60;85.20;;;;;;10057818;28;20292;-70
2023/07/15 09:44:55;;;;;;;4.55;2.30;;;28.70;84.90;;;;;;10054710;28;20512;-70
2023/07/15 09:49:46;;;;;;;2.83;2.15;;;28.80;84.60;;;;;;10046959;28;20089;-70
2023/07/15 09:54:41;;;;;;;5.13;2.30;;;28.90;84.30;;;;;;10041914;28;20520;-70
2023/07/15 09:59:40;;;;;;;2.70;1.85;;;29.00;84.10;;;;;;10029898;28;20033;-70
2023/07/15 10:04:43;;;;;;;3.63;2.08;;;29.00;84.10;;;;;;10054057;28;20091;-71
2023/07/15 10:09:35;;;;;;;5.57;2.20;;;29.10;84.00;;;;;;10050922;28;20022;-71
2023/07/15 10:14:30;;;;;;;4.38;2.15;;;29.00;83.90;;;;;;10041325;28;20061;-71
2023/07/15 10:19:41;;;;;;;2.83;1.98;;;29.10;83.80;;;;;;10037659;28;20037;-71
2023/07/15 10:24:33;;;;;;;3.42;2.30;;;29.10;83.50;;;;;;10042535;28;20030;-71
2023/07/15 10:29:23;;;;;;;2.85;2.22;;;29.10;83.60;;;;;;10046281;28;20030;-70
2023/07/15 10:34:14;;;;;;;3.95;2.40;;;29.00;83.50;;;;;;10055506;28;20523;-72
2023/07/15 10:39:19;;;;;;;4.18;2.00;;;29.00;83.60;;;;;;10059218;28;20037;-71
2023/07/15 10:44:24;;;;;;;5.70;2.50;;;29.10;83.60;;;;;;10064740;28;20029;-71
2023/07/15 10:49:15;;;;;;;6.97;2.25;;;29.20;83.40;;;;;;10058372;28;20268;-71
2023/07/15 10:54:05;;;;;;;4.93;2.28;;;29.30;83.20;;;;;;10056699;28;20662;-70
2023/07/15 10:58:57;;;;;;;3.83;2.80;;;29.40;83.20;;;;;;10055275;28;20522;-71
2023/07/15 11:03:48;;;;;;;3.90;2.50;;;29.40;83.20;;;;;;10058273;28;20383;-70
2023/07/15 11:08:40;;;;;;;4.13;2.47;;;29.40;83.20;;;;;;10056997;28;20057;-70
2023/07/15 11:13:35;;;;;;;5.70;2.72;;;29.30;83.20;;;;;;10058711;28;20579;-70
2023/07/15 11:18:26;;;;;;;4.03;2.50;;;29.40;83.30;;;;;;10057377;28;20040;-70
2023/07/15 11:23:18;;;;;;;4.22;3.03;;;29.40;83.40;;;;;;10058266;28;20025;-70
2023/07/15 11:28:10;;;;;;;3.03;2.60;;;29.60;83.40;;;;;;10058645;28;20083;-70
2023/07/15 11:33:01;;;;;;;4.53;3.22;;;29.70;83.50;;;;;;10055486;28;20043;-70
2023/07/15 11:37:52;;;;;;;6.32;2.97;;;29.80;83.30;;;;;;10049185;28;20027;-70
2023/07/15 11:42:42;;;;;;;4.97;2.83;;;29.80;83.60;;;;;;10046712;28;20108;-70
2023/07/15 11:47:35;;;;;;;3.92;2.75;;;29.80;83.70;;;;;;10042606;28;20034;-70
2023/07/15 11:52:25;;;;;;;6.18;3.67;;;29.80;83.70;;;;;;10036298;28;20112;-70
2023/07/15 11:57:26;;;;;;;4.85;2.63;;;30.10;83.70;;;;;;10036161;28;20112;-72
2023/07/15 12:02:17;;;;;;;3.05;2.35;;;30.10;83.60;;;;;;10040448;28;20559;-71
2023/07/15 12:07:08;;;;;;;7.25;2.78;;;30.20;83.60;;;;;;10052174;28;20037;-70
2023/07/15 12:11:58;;;;;;;4.18;2.40;;;30.10;83.60;;;;;;10043273;28;20132;-70
2023/07/15 12:16:53;;;;;;;3.78;2.45;;;30.20;83.50;;;;;;10044093;28;20038;-71
2023/07/15 12:21:43;;;;;;;3.78;2.15;;;30.20;84.00;;;;;;10043335;28;20511;-70
2023/07/15 12:26:34;;;;;;;5.38;2.38;;;30.40;83.00;;;;;;10024977;28;20029;-70
2023/07/15 12:31:25;;;;;;;4.30;2.22;;;30.50;82.80;;;;;;10059218;28;20026;-70
2023/07/15 12:36:17;;;;;;;4.35;2.58;;;30.60;82.60;;;;;;10059623;28;20128;-70
2023/07/15 12:41:09;;;;;;;3.80;2.78;;;30.80;82.40;;;;;;10052166;28;20032;-70
2023/07/15 12:46:00;;;;;;;3.72;2.78;;;30.80;82.30;;;;;;10057537;28;20029;-71
2023/07/15 12:50:51;;;;;;;4.78;2.65;;;30.90;81.90;;;;;;10050016;28;20041;-70
2023/07/15 12:55:42;;;;;;;6.22;2.83;;;31.00;81.70;;;;;;10041724;28;20528;-71
2023/07/15 13:00:33;;;;;;;3.78;2.45;;;31.10;81.40;;;;;;10039904;28;20032;-70
2023/07/15 13:05:23;;;;;;;3.00;2.47;;;31.20;81.30;;;;;;10060037;28;20045;-70
2023/07/15 13:10:14;;;;;;;5.85;2.70;;;31.00;81.30;;;;;;10057284;28;20029;-70
2023/07/15 13:15:05;;;;;;;4.60;2.70;;;30.90;81.30;;;;;;10060931;28;20059;-70
2023/07/15 13:19:56;;;;;;;4.03;2.50;;;30.90;81.30;;;;;;10040389;28;20025;-71
2023/07/15 13:24:48;;;;;;;7.78;2.80;;;30.90;80.90;;;;;;10038723;28;20030;-70
2023/07/15 13:29:38;;;;;;;4.30;2.40;;;31.10;80.70;;;;;;10060134;28;20033;-71
2023/07/15 13:34:29;;;;;;;7.68;2.53;;;31.30;80.30;;;;;;10060802;28;20048;-70
2023/07/15 13:39:42;;;;;;;5.55;2.30;;;31.30;80.00;;;;;;10056596;28;20423;-70
2023/07/15 13:44:35;;;;;;;2.40;2.00;;;31.50;79.90;;;;;;10066005;28;20026;-70
2023/07/15 13:49:27;;;;;;;3.88;2.72;;;31.40;79.70;;;;;;10043997;28;20033;-70
2023/07/15 13:54:17;;;;;;;4.43;2.38;;;31.30;79.70;;;;;;10041204;28;20065;-70
2023/07/15 13:59:08;;;;;;;2.63;2.20;;;31.20;79.70;;;;;;10033388;28;20029;-70
2023/07/15 14:03:58;;;;;;;3.35;2.78;;;31.10;79.70;;;;;;10041032;28;20574;-70
2023/07/15 14:08:49;;;;;;;3.00;2.42;;;30.90;80.10;;;;;;10051004;28;20064;-70
2023/07/15 14:13:40;;;;;;;4.82;2.20;;;30.90;80.70;;;;;;10044573;28;20041;-70
2023/07/15 14:18:30;;;;;;;4.10;2.25;;;30.70;81.20;;;;;;10039579;28;20044;-71
2023/07/15 14:23:21;;;;;;;5.88;3.33;;;30.70;81.60;;;;;;10050972;28;20040;-71
2023/07/15 14:28:11;;;;;;;5.45;2.97;;;30.70;82.80;;;;;;10044944;28;20507;-71
2023/07/15 14:33:02;;;;;;;5.03;3.15;;;30.60;84.40;;;;;;10058118;28;20419;-71
2023/07/15 14:37:53;;;;;;;7.07;3.08;;;30.60;86.00;;;;;;10052795;28;20112;-70
2023/07/15 14:42:43;;;;;;;3.08;2.75;;;30.80;87.40;;;;;;10065448;28;20041;-70
2023/07/15 14:47:35;;;;;;;7.75;3.08;;;31.30;88.00;;;;;;10053769;28;20499;-70
2023/07/15 14:52:26;;;;;;;4.88;2.65;;;31.70;88.60;;;;;;10044865;28;20041;-70
2023/07/15 14:57:16;;;;;;;5.22;2.55;;;31.80;88.50;;;;;;10048050;28;20047;-70
2023/07/15 15:02:07;;;;;;;4.57;3.03;;;32.20;88.90;;;;;;10047352;28;20032;-72
2023/07/15 15:06:57;;;;;;;4.45;2.63;;;32.40;89.00;;;;;;10054992;28;20029;-70
2023/07/15 15:11:48;;;;;;;4.15;3.08;;;32.60;89.30;;;;;;10042785;28;20502;-71
2023/07/15 15:16:39;;;;;;;4.75;3.10;;;32.80;89.30;;;;;;10035333;28;20017;-71
2023/07/15 15:21:29;;;;;;;4.20;2.55;;;33.20;89.00;;;;;;10027756;28;20034;-71
2023/07/15 15:26:20;;;;;;;4.65;2.97;;;33.20;88.90;;;;;;10037075;28;20140;-71
2023/07/15 15:31:11;;;;;;;5.47;2.53;;;33.70;88.30;;;;;;10056226;28;20037;-71
2023/07/15 15:36:01;;;;;;;6.22;2.95;;;33.90;87.50;;;;;;10056024;28;20064;-71
2023/07/15 15:40:52;;;;;;;4.25;2.28;;;33.90;87.20;;;;;;10052001;28;20426;-71
2023/07/15 15:45:43;;;;;;;3.15;2.35;;;33.90;87.50;;;;;;10054765;28;20602;-71
2023/07/15 15:50:33;;;;;;;4.35;2.78;;;33.80;87.40;;;;;;10042162;28;20074;-70
2023/07/15 15:55:24;;;;;;;5.90;3.08;;;33.60;87.50;;;;;;10040569;28;20400;-71
2023/07/15 16:00:19;;;;;;;3.45;2.40;;;34.30;86.80;;;;;;10041605;28;20033;-70
2023/07/15 16:05:10;;;;;;;5.22;3.38;;;34.50;85.80;;;;;;10042273;28;20033;-71
2023/07/15 16:10:00;;;;;;;4.30;2.80;;;33.20;86.80;;;;;;10043902;28;20045;-71
2023/07/15 16:14:51;;;;;;;4.65;3.03;;;32.50;87.50;;;;;;10034465;28;20099;-70
2023/07/15 16:19:43;;;;;;;4.85;3.17;;;32.70;87.70;;;;;;10030124;28;20049;-70
2023/07/15 16:24:33;;;;;;;3.72;2.72;;;32.60;87.60;;;;;;10020200;28;20447;-70
2023/07/15 16:29:24;;;;;;;3.28;2.67;;;32.30;88.00;;;;;;10055419;28;20025;-70
2023/07/15 16:34:16;;;;;;;3.30;2.70;;;32.00;88.60;;;;;;10052455;28;20630;-70
2023/07/15 16:39:07;;;;;;;4.43;2.55;;;32.80;88.20;;;;;;10047117;28;20036;-70
2023/07/15 16:43:57;;;;;;;3.53;2.85;;;33.60;87.50;;;;;;10059317;28;20116;-71
2023/07/15 16:48:48;;;;;;;4.55;2.50;;;34.10;86.30;;;;;;10042016;28;20036;-70
2023/07/15 16:53:39;;;;;;;5.05;2.85;;;34.00;85.80;;;;;;10037695;28;20133;-70
2023/07/15 16:58:29;;;;;;;3.78;2.35;;;34.10;85.30;;;;;;10036128;28;20438;-71
2023/07/15 17:03:20;;;;;;;4.85;2.70;;;34.30;84.80;;;;;;10024485;28;20059;-69
2023/07/15 17:08:10;;;;;;;2.97;2.53;;;34.20;84.80;;;;;;10051062;28;20371;-71
2023/07/15 17:13:01;;;;;;;3.03;2.72;;;34.50;84.10;;;;;;10048796;28;20146;-70
2023/07/15 17:17:52;;;;;;;4.88;2.38;;;34.30;84.10;;;;;;10051856;28;20063;-70
2023/07/15 17:22:42;;;;;;;5.20;2.47;;;33.90;84.10;;;;;;10063556;28;20034;-70
2023/07/15 17:27:33;;;;;;;2.63;2.20;;;33.40;84.30;;;;;;10062408;28;20029;-70
2023/07/15 17:32:23;;;;;;;4.03;2.42;;;32.70;85.00;;;;;;10053643;28;20033;-70
2023/07/15 17:37:14;;;;;;;2.70;2.00;;;32.30;85.70;;;;;;10058373;28;20077;-70
2023/07/15 17:42:05;;;;;;;4.55;2.80;;;31.90;86.30;;;;;;10044620;28;20605;-70
2023/07/15 17:46:56;;;;;;;4.32;2.75;;;31.80;86.90;;;;;;10057403;28;20044;-70
2023/07/15 17:51:46;;;;;;;3.60;2.88;;;31.70;86.50;;;;;;10055935;28;20087;-70
2023/07/15 17:56:37;;;;;;;4.28;2.78;;;31.60;86.90;;;;;;10045988;28;20033;-69
2023/07/15 18:01:27;;;;;;;5.40;2.28;;;31.50;87.30;;;;;;10040149;28;20036;-71
2023/07/15 18:06:18;;;;;;;6.03;2.70;;;31.50;87.30;;;;;;10058578;28;20022;-70
2023/07/15 18:11:09;;;;;;;5.95;3.00;;;31.30;87.30;;;;;;10047271;28;20056;-70
2023/07/15 18:15:59;;;;;;;6.78;3.20;;;31.10;87.90;;;;;;10052950;28;20042;-70
2023/07/15 18:20:50;;;;;;;4.50;2.72;;;31.30;87.90;;;;;;10044742;28;20037;-70
2023/07/15 18:25:41;;;;;;;5.90;2.75;;;31.10;87.90;;;;;;10032142;28;20025;-72
2023/07/15 18:30:32;;;;;;;5.75;2.50;;;31.00;88.00;;;;;;10057168;28;20121;-70
2023/07/15 18:35:23;;;;;;;4.78;2.28;;;31.00;88.20;;;;;;10056272;28;20055;-70
2023/07/15 18:40:13;;;;;;;5.25;3.03;;;30.80;88.40;;;;;;10049305;28;20032;-69
2023/07/15 18:45:05;;;;;;;3.00;2.60;;;30.60;89.10;;;;;;10056655;28;20083;-70
2023/07/15 18:49:55;;;;;;;3.70;2.50;;;30.50;90.00;;;;;;10050836;28;20077;-70
2023/07/15 18:54:46;;;;;;;3.88;2.40;;;30.50;90.20;;;;;;10045273;28;20041;-70
2023/07/15 18:59:37;;;;;;;3.20;2.15;;;30.40;90.00;;;;;;10046702;28;20026;-69
2023/07/15 19:04:28;;;;;;;5.07;2.42;;;30.10;90.50;;;;;;10042916;28;20562;-70
2023/07/15 19:09:19;;;;;;;3.42;2.03;;;30.00;90.80;;;;;;10044101;28;20148;-71
2023/07/15 19:14:10;;;;;;;3.15;1.63;;;29.70;91.50;;;;;;10041868;28;20534;-72
2023/07/15 19:19:00;;;;;;;2.50;1.42;;;29.40;91.90;;;;;;10040338;28;20132;-71
2023/07/15 19:23:53;;;;;;;2.75;1.90;;;29.20;92.10;;;;;;10032608;28;20196;-72
2023/07/15 19:28:43;;;;;;;2.75;1.60;;;29.10;92.50;;;;;;10045719;28;20030;-71
2023/07/15 19:33:35;;;;;;;2.72;2.00;;;29.10;92.50;;;;;;10058449;28;20467;-71
2023/07/15 19:38:26;;;;;;;2.30;2.03;;;29.10;92.70;;;;;;10048617;28;20034;-71
2023/07/15 19:43:16;;;;;;;2.30;1.80;;;29.10;92.90;;;;;;10057293;28;20021;-72
2023/07/15 19:48:07;;;;;;;3.92;1.77;;;29.20;92.90;;;;;;10047070;28;20044;-72
2023/07/15 19:52:58;;;;;;;2.88;2.20;;;29.00;93.20;;;;;;10050652;28;20092;-71
2023/07/15 19:57:48;;;;;;;3.22;1.70;;;28.90;93.20;;;;;;10043288;28;20033;-70
2023/07/15 20:02:40;;;;;;;3.15;1.80;;;28.80;93.40;;;;;;10044050;28;20495;-71
2023/07/15 20:07:30;;;;;;;3.97;1.92;;;28.70;93.60;;;;;;10043793;28;20038;-70
2023/07/15 20:12:23;;;;;;;3.92;1.90;;;28.70;93.70;;;;;;10041242;28;20508;-71
2023/07/15 20:17:14;;;;;;;3.97;1.35;;;28.70;93.60;;;;;;10042369;28;20471;-72
2023/07/15 20:22:05;;;;;;;1.95;1.42;;;28.60;93.60;;;;;;10031979;28;20034;-73
2023/07/15 20:26:56;;;;;;;4.63;2.00;;;28.60;93.70;;;;;;10033188;28;20298;-71
2023/07/15 20:31:46;;;;;;;2.50;1.13;;;28.60;93.90;;;;;;10052643;28;20120;-71
2023/07/15 20:36:38;;;;;;;2.97;1.27;;;28.50;94.30;;;;;;10056398;28;20144;-70
2023/07/15 20:41:28;;;;;;;4.03;1.52;;;28.50;94.50;;;;;;10048158;28;20029;-72
2023/07/15 20:46:19;;;;;;;4.85;1.58;;;28.50;94.70;;;;;;10049328;28;20024;-70
2023/07/15 20:51:09;;;;;;;3.05;1.80;;;28.40;94.80;;;;;;10040399;28;20033;-72
2023/07/15 20:56:00;;;;;;;2.88;1.60;;;28.30;95.00;;;;;;10040697;28;20041;-71
2023/07/15 21:00:51;;;;;;;3.92;1.85;;;28.30;95.20;;;;;;10038246;28;20503;-72
2023/07/15 21:05:41;;;;;;;3.83;1.92;;;28.30;95.30;;;;;;10060144;28;20536;-69
2023/07/15 21:10:32;;;;;;;2.58;1.90;;;28.30;95.50;;;;;;10051664;28;20180;-70
2023/07/15 21:15:22;;;;;;;3.17;1.70;;;28.10;95.80;;;;;;10046637;28;20052;-70
2023/07/15 21:20:13;;;;;;;2.45;1.50;;;28.20;95.90;;;;;;10048483;28;20077;-72
2023/07/15 21:25:05;;;;;;;2.92;1.65;;;28.20;95.90;;;;;;10038277;28;20022;-72
2023/07/15 21:29:56;;;;;;;5.03;1.55;;;28.10;96.10;;;;;;10050928;28;20030;-71
2023/07/15 21:34:49;;;;;;;3.00;2.03;;;28.00;96.30;;;;;;10055421;28;20424;-71
2023/07/15 21:39:40;;;;;;;3.67;1.85;;;28.00;96.40;;;;;;10057476;28;20567;-73
2023/07/15 21:44:30;;;;;;;3.78;1.92;;;28.00;96.40;;;;;;10056701;28;20037;-72
2023/07/15 21:49:21;;;;;;;2.63;1.65;;;28.10;96.50;;;;;;10045289;28;20106;-72
2023/07/15 21:54:12;;;;;;;2.15;1.38;;;27.90;96.60;;;;;;10044689;28;20073;-71
2023/07/15 21:59:02;;;;;;;3.08;1.70;;;27.80;96.90;;;;;;10031986;28;20558;-70
2023/07/15 22:03:53;;;;;;;3.42;1.60;;;27.70;97.00;;;;;;10041420;28;20069;-69
2023/07/15 22:08:44;;;;;;;2.85;1.27;;;27.90;97.00;;;;;;10054480;28;20034;-71
2023/07/15 22:13:35;;;;;;;4.50;1.50;;;27.80;97.10;;;;;;10044229;28;20045;-69
2023/07/15 22:18:25;;;;;;;3.10;2.00;;;27.70;97.10;;;;;;10042246;28;20033;-70
2023/07/15 22:23:16;;;;;;;2.92;1.83;;;26.70;97.80;;;;;;10045256;28;20256;-69
2023/07/15 22:28:07;;;;;;;3.65;1.33;;;25.40;99.90;;;;;;10037711;28;20029;-69
2023/07/15 22:32:57;;;;;;;1.85;1.10;;;25.00;99.90;;;;;;10056348;28;20507;-69
2023/07/15 22:37:48;;;;;;;2.67;1.30;;;24.70;99.90;;;;;;10051846;28;20038;-69
2023/07/15 22:42:39;;;;;;;2.30;1.08;;;24.70;99.90;;;;;;10047675;28;20032;-70
2023/07/15 22:47:32;;;;;;;1.75;0.80;;;24.60;99.90;;;;;;10057284;28;20022;-69
2023/07/15 22:52:23;;;;;;;2.67;1.08;;;24.60;99.90;;;;;;10047539;28;20029;-70
2023/07/15 22:57:13;;;;;;;1.08;0.85;;;24.50;99.90;;;;;;10041633;28;20036;-71
2023/07/15 23:02:04;;;;;;;1.88;0.95;;;24.50;99.90;;;;;;10032879;28;20260;-69
2023/07/15 23:06:56;;;;;;;0.80;0.68;;;24.60;99.90;;;;;;10056428;28;20380;-71
2023/07/15 23:11:46;;;;;;;1.25;0.82;;;24.70;99.90;;;;;;10041883;28;20393;-73
2023/07/15 23:16:37;;;;;;;0.95;0.80;;;24.70;99.90;;;;;;10041197;28;20029;-72
2023/07/15 23:21:27;;;;;;;2.42;0.85;;;24.80;99.90;;;;;;10033468;28;20504;-70
2023/07/15 23:26:18;;;;;;;1.55;0.80;;;25.00;99.90;;;;;;10028711;28;20030;-70
2023/07/15 23:31:09;;;;;;;1.83;0.73;;;25.10;99.90;;;;;;10057982;28;20544;-69
2023/07/15 23:35:59;;;;;;;2.00;1.42;;;25.10;99.90;;;;;;10051609;28;20073;-69
2023/07/15 23:40:50;;;;;;;1.88;0.85;;;25.00;99.90;;;;;;10047600;28;20479;-70
2023/07/15 23:45:41;;;;;;;2.17;0.73;;;24.90;99.90;;;;;;10049043;28;20100;-71
2023/07/15 23:50:32;;;;;;;1.17;0.80;;;24.80;99.90;;;;;;10037537;28;20034;-71
2023/07/15 23:55:22;;;;;;;2.35;0.75;;;24.90;99.90;;;;;;10033429;28;20307;-71
